createdAt,value
2023-04-27T00:00:19.268Z,7.15
2023-04-27T00:02:46.826Z,7.38
2023-04-27T00:05:14.220Z,8.98
2023-04-27T00:07:41.832Z,7.57
2023-04-27T00:10:09.402Z,7.53
2023-04-27T00:12:36.661Z,8.85
2023-04-27T00:15:04.597Z,9.50
2023-04-27T00:17:32.496Z,8.45
2023-04-27T00:20:00.674Z,7.32
2023-04-27T00:22:27.846Z,8.77
2023-04-27T00:24:54.875Z,6.70
2023-04-27T00:27:22.056Z,6.30
2023-04-27T00:29:49.130Z,7.47
2023-04-27T00:32:16.669Z,7.60
2023-04-27T00:34:43.874Z,7.40
2023-04-27T00:37:13.009Z,7.18
2023-04-27T00:39:40.093Z,7.57
2023-04-27T00:42:11.710Z,6.45
2023-04-27T00:44:39.944Z,7.18
2023-04-27T00:47:07.332Z,6.78
2023-04-27T00:49:34.502Z,6.60
2023-04-27T00:52:01.660Z,7.40
2023-04-27T00:54:29.120Z,7.93
2023-04-27T00:56:56.402Z,8.13
2023-04-27T00:59:23.479Z,8.05
2023-04-27T01:01:52.781Z,7.55
2023-04-27T01:04:20.369Z,8.20
2023-04-27T01:06:48.030Z,7.70
2023-04-27T01:09:16.633Z,9.50
2023-04-27T01:11:43.588Z,7.15
2023-04-27T01:14:10.656Z,7.93
2023-04-27T01:16:38.121Z,8.35
2023-04-27T01:19:05.327Z,6.78
2023-04-27T01:21:32.607Z,7.70
2023-04-27T01:23:59.704Z,7.22
2023-04-27T01:26:27.031Z,6.68
2023-04-27T01:28:54.046Z,7.15
2023-04-27T01:31:21.266Z,6.43
2023-04-27T01:33:48.614Z,7.25
2023-04-27T01:36:15.635Z,7.28
2023-04-27T01:38:43.164Z,7.18
2023-04-27T01:41:13.371Z,6.95
2023-04-27T01:43:43.853Z,6.47
2023-04-27T01:46:14.491Z,6.43
2023-04-27T01:48:41.960Z,6.63
2023-04-27T01:51:08.957Z,6.97
2023-04-27T01:53:36.062Z,5.78
2023-04-27T01:56:03.810Z,6.28
2023-04-27T01:58:33.251Z,6.40
2023-04-27T02:01:00.472Z,6.20
2023-04-27T02:03:29.440Z,5.45
2023-04-27T02:05:56.518Z,6.18
2023-04-27T02:08:23.574Z,4.95
2023-04-27T02:10:50.864Z,6.07
2023-04-27T02:13:17.763Z,5.60
2023-04-27T02:15:44.879Z,5.78
2023-04-27T02:18:12.277Z,6.45
2023-04-27T02:20:39.229Z,5.72
2023-04-27T02:23:06.879Z,4.53
2023-04-27T02:25:37.006Z,4.93
2023-04-27T02:28:04.415Z,5.63
2023-04-27T02:30:32.214Z,4.63
2023-04-27T02:33:02.226Z,5.32
2023-04-27T02:35:33.426Z,5.47
2023-04-27T02:38:00.877Z,5.72
2023-04-27T02:40:28.502Z,5.45
2023-04-27T02:42:55.699Z,4.65
2023-04-27T02:45:22.638Z,4.65
2023-04-27T02:47:51.096Z,5.43
2023-04-27T02:50:18.160Z,5.75
2023-04-27T02:52:45.180Z,5.15
2023-04-27T02:55:12.227Z,6.47
2023-04-27T02:57:39.476Z,6.15
2023-04-27T03:00:09.293Z,6.22
2023-04-27T03:02:36.724Z,6.95
2023-04-27T03:05:04.659Z,7.97
2023-04-27T03:07:32.244Z,7.80
2023-04-27T03:09:59.325Z,8.00
2023-04-27T03:12:26.679Z,7.50
2023-04-27T03:14:53.819Z,9.68
2023-04-27T03:17:20.897Z,8.98
2023-04-27T03:19:49.378Z,9.85
2023-04-27T03:22:16.549Z,9.68
2023-04-27T03:24:43.521Z,8.57
2023-04-27T03:27:10.533Z,7.88
2023-04-27T03:29:38.092Z,8.23
2023-04-27T03:32:05.660Z,9.10
2023-04-27T03:34:33.132Z,10.52
2023-04-27T03:37:00.346Z,9.73
2023-04-27T03:39:27.950Z,9.60
2023-04-27T03:41:54.967Z,9.00
2023-04-27T03:44:22.187Z,9.70
2023-04-27T03:46:49.254Z,9.23
2023-04-27T03:49:16.759Z,9.27
2023-04-27T03:51:44.191Z,8.85
2023-04-27T03:54:11.708Z,9.32
2023-04-27T03:56:39.023Z,10.30
2023-04-27T03:59:06.581Z,8.68
2023-04-27T04:01:37.318Z,9.02
2023-04-27T04:04:04.686Z,8.13
2023-04-27T04:06:32.468Z,8.07
2023-04-27T04:08:59.530Z,8.73
2023-04-27T04:11:27.620Z,8.50
2023-04-27T04:13:57.624Z,8.05
2023-04-27T04:16:24.774Z,9.73
2023-04-27T04:18:53.252Z,9.15
2023-04-27T04:21:21.260Z,8.38
2023-04-27T04:23:48.864Z,7.40
2023-04-27T04:26:16.799Z,8.65
2023-04-27T04:28:45.103Z,8.35
2023-04-27T04:31:15.153Z,8.85
2023-04-27T04:33:42.127Z,8.73
2023-04-27T04:36:11.066Z,8.57
2023-04-27T04:38:38.371Z,8.63
2023-04-27T04:41:07.439Z,10.95
2023-04-27T04:43:34.655Z,9.90
2023-04-27T04:46:04.933Z,9.98
2023-04-27T04:48:32.475Z,10.20
2023-04-27T04:50:59.653Z,10.23
2023-04-27T04:53:27.022Z,9.10
2023-04-27T04:55:56.153Z,10.00
2023-04-27T04:58:23.241Z,8.50
2023-04-27T05:00:50.237Z,9.25
2023-04-27T05:03:17.834Z,9.25
2023-04-27T05:05:45.010Z,9.18
2023-04-27T05:08:12.019Z,9.98
2023-04-27T05:10:39.107Z,8.43
2023-04-27T05:13:07.277Z,8.02
2023-04-27T05:15:34.590Z,8.63
2023-04-27T05:18:01.657Z,7.05
2023-04-27T05:20:28.639Z,8.35
2023-04-27T05:22:55.807Z,7.20
2023-04-27T05:25:22.705Z,7.43
2023-04-27T05:27:49.682Z,6.57
2023-04-27T05:30:16.946Z,7.43
2023-04-27T05:32:44.210Z,6.32
2023-04-27T05:35:11.537Z,7.60
2023-04-27T05:37:38.474Z,6.30
2023-04-27T05:40:07.564Z,6.75
2023-04-27T05:42:34.700Z,7.10
2023-04-27T05:45:02.817Z,7.85
2023-04-27T05:47:31.107Z,6.22
2023-04-27T05:49:58.092Z,7.15
2023-04-27T05:52:30.889Z,5.97
2023-04-27T05:55:01.354Z,7.28
2023-04-27T05:57:30.293Z,6.75
2023-04-27T05:59:57.369Z,7.00
2023-04-27T06:02:24.481Z,15.90
2023-04-27T06:04:51.839Z,7.07
2023-04-27T06:07:18.763Z,6.60
2023-04-27T06:09:45.942Z,5.85
2023-04-27T06:12:12.931Z,5.22
2023-04-27T06:14:39.962Z,6.30
2023-04-27T06:17:07.104Z,6.13
2023-04-27T06:19:34.136Z,4.82
2023-04-27T06:22:01.248Z,6.63
2023-04-27T06:24:28.856Z,5.90
2023-04-27T06:26:58.865Z,5.88
2023-04-27T06:29:25.921Z,5.13
2023-04-27T06:31:52.919Z,5.32
2023-04-27T06:34:19.962Z,4.85
2023-04-27T06:36:47.093Z,4.55
2023-04-27T06:39:14.461Z,4.68
2023-04-27T06:41:41.718Z,3.83
2023-04-27T06:44:18.838Z,5.20
2023-04-27T06:46:45.975Z,4.60
2023-04-27T06:49:13.149Z,4.32
2023-04-27T06:51:40.251Z,3.88
2023-04-27T06:54:07.848Z,3.90
2023-04-27T06:56:34.901Z,2.85
2023-04-27T06:59:01.856Z,3.38
2023-04-27T07:01:29.030Z,3.30
2023-04-27T07:03:56.310Z,3.92
2023-04-27T07:06:25.616Z,4.18
2023-04-27T07:08:52.757Z,4.22
2023-04-27T07:11:19.916Z,3.83
2023-04-27T07:13:47.538Z,3.70
2023-04-27T07:16:15.820Z,4.80
2023-04-27T07:18:44.285Z,5.55
2023-04-27T07:21:11.543Z,5.13
2023-04-27T07:23:41.289Z,5.85
2023-04-27T07:26:09.029Z,5.28
2023-04-27T07:28:36.271Z,5.22
2023-04-27T07:31:06.720Z,6.10
2023-04-27T07:33:34.581Z,6.03
2023-04-27T07:36:02.828Z,5.65
2023-04-27T07:38:31.409Z,6.32
2023-04-27T07:41:05.811Z,5.65
2023-04-27T07:43:32.857Z,5.53
2023-04-27T07:45:59.933Z,5.70
2023-04-27T07:48:28.865Z,6.88
2023-04-27T07:50:56.013Z,5.40
2023-04-27T07:53:23.041Z,5.10
2023-04-27T07:55:49.978Z,6.13
2023-04-27T07:58:17.212Z,5.32
2023-04-27T08:00:44.245Z,4.97
2023-04-27T08:03:11.275Z,5.95
2023-04-27T08:05:39.423Z,5.95
2023-04-27T08:08:07.041Z,5.82
2023-04-27T08:10:34.163Z,6.35
2023-04-27T08:13:01.396Z,6.00
2023-04-27T08:15:28.481Z,6.68
2023-04-27T08:17:55.613Z,6.90
2023-04-27T08:20:22.612Z,5.43
2023-04-27T08:22:51.392Z,6.72
2023-04-27T08:25:18.500Z,6.40
2023-04-27T08:27:47.055Z,6.28
2023-04-27T08:30:14.354Z,6.38
2023-04-27T08:32:41.792Z,5.82
2023-04-27T08:35:09.295Z,6.55
2023-04-27T08:37:36.356Z,5.93
2023-04-27T08:40:06.255Z,6.05
2023-04-27T08:42:33.320Z,5.72
2023-04-27T08:45:00.289Z,5.82
2023-04-27T08:47:41.136Z,5.53
2023-04-27T08:50:10.533Z,5.97
2023-04-27T08:52:37.912Z,5.70
2023-04-27T08:55:05.591Z,5.90
2023-04-27T08:57:32.613Z,5.43
2023-04-27T09:00:00.917Z,6.38
2023-04-27T09:02:29.817Z,6.25
2023-04-27T09:04:57.331Z,5.22
2023-04-27T09:07:26.165Z,5.18
2023-04-27T09:10:03.123Z,5.93
2023-04-27T09:12:30.575Z,6.07
2023-04-27T09:14:57.985Z,5.10
2023-04-27T09:17:28.018Z,5.25
2023-04-27T09:20:13.607Z,5.32
2023-04-27T09:22:48.715Z,5.07
2023-04-27T09:25:32.595Z,4.32
2023-04-27T09:28:00.778Z,5.30
2023-04-27T09:30:29.986Z,4.68
2023-04-27T09:33:04.693Z,4.32
2023-04-27T09:35:33.694Z,5.30
2023-04-27T09:38:01.317Z,4.95
2023-04-27T09:40:32.202Z,4.90
2023-04-27T09:43:04.500Z,5.65
2023-04-27T09:45:34.121Z,4.68
2023-04-27T09:48:01.951Z,4.85
2023-04-27T09:50:29.318Z,4.97
2023-04-27T09:52:57.270Z,5.78
2023-04-27T09:55:39.750Z,5.65
2023-04-27T09:58:24.273Z,4.22
2023-04-27T10:01:19.793Z,5.70
2023-04-27T10:04:09.986Z,5.10
2023-04-27T10:06:52.680Z,5.80
2023-04-27T10:09:23.979Z,5.13
2023-04-27T10:11:52.503Z,4.43
2023-04-27T10:14:21.871Z,3.92
2023-04-27T10:16:54.183Z,4.75
2023-04-27T10:19:23.750Z,4.50
2023-04-27T10:22:03.430Z,4.80
2023-04-27T10:24:44.361Z,4.63
2023-04-27T10:27:16.127Z,4.10
2023-04-27T10:29:44.916Z,4.82
2023-04-27T10:32:19.110Z,4.05
2023-04-27T10:34:48.337Z,3.83
2023-04-27T10:37:16.001Z,3.63
2023-04-27T10:39:48.973Z,4.22
2023-04-27T10:42:30.574Z,3.75
2023-04-27T10:44:58.421Z,4.63
2023-04-27T10:47:36.125Z,4.43
2023-04-27T10:50:04.899Z,4.25
2023-04-27T10:52:31.971Z,4.57
2023-04-27T10:54:59.097Z,4.50
2023-04-27T10:57:26.971Z,4.78
2023-04-27T10:59:55.755Z,5.07
2023-04-27T11:02:28.429Z,4.45
2023-04-27T11:04:56.721Z,5.75
2023-04-27T11:07:28.409Z,5.03
2023-04-27T11:09:56.150Z,5.10
2023-04-27T11:12:24.278Z,4.53
2023-04-27T11:14:57.862Z,5.22
2023-04-27T11:17:32.568Z,5.40
2023-04-27T11:19:59.586Z,5.55
2023-04-27T11:22:27.048Z,5.07
2023-04-27T11:24:54.157Z,4.40
2023-04-27T11:27:23.486Z,4.07
2023-04-27T11:29:51.003Z,4.55
2023-04-27T11:32:23.137Z,5.20
2023-04-27T11:34:55.191Z,4.60
2023-04-27T11:37:26.044Z,4.78
2023-04-27T11:39:57.641Z,4.43
2023-04-27T11:42:26.368Z,4.82
2023-04-27T11:45:00.333Z,4.35
2023-04-27T11:47:30.532Z,4.13
2023-04-27T11:50:00.013Z,4.35
2023-04-27T11:52:32.138Z,4.50
2023-04-27T11:55:00.851Z,5.13
2023-04-27T11:57:30.111Z,5.30
2023-04-27T12:00:02.567Z,5.30
2023-04-27T12:02:42.556Z,4.25
2023-04-27T12:05:10.257Z,5.82
2023-04-27T12:07:37.512Z,4.57
2023-04-27T12:10:05.541Z,4.82
2023-04-27T12:12:33.603Z,5.72
2023-04-27T12:15:00.697Z,5.30
2023-04-27T12:17:27.814Z,4.43
2023-04-27T12:19:54.815Z,4.80
2023-04-27T12:22:21.875Z,5.45
2023-04-27T12:24:48.795Z,4.60
2023-04-27T12:27:16.222Z,4.50
2023-04-27T12:29:43.227Z,4.50
2023-04-27T12:32:10.347Z,4.63
2023-04-27T12:34:39.351Z,4.53
2023-04-27T12:37:06.822Z,3.97
2023-04-27T12:39:34.460Z,4.60
2023-04-27T12:42:02.549Z,4.22
2023-04-27T12:44:29.700Z,4.80
2023-04-27T12:46:57.105Z,3.97
2023-04-27T12:49:24.261Z,4.10
2023-04-27T12:51:53.001Z,3.63
2023-04-27T12:54:20.248Z,3.83
2023-04-27T12:56:47.313Z,3.95
2023-04-27T12:59:14.614Z,3.83
2023-04-27T13:01:41.740Z,3.55
2023-04-27T13:04:09.394Z,4.55
2023-04-27T13:06:36.569Z,4.40
2023-04-27T13:09:03.918Z,4.07
2023-04-27T13:11:31.317Z,3.83
2023-04-27T13:13:59.032Z,4.35
2023-04-27T13:16:26.657Z,4.07
2023-04-27T13:18:55.654Z,3.83
2023-04-27T13:21:23.277Z,3.85
2023-04-27T13:23:51.305Z,3.50
2023-04-27T13:26:18.256Z,4.07
2023-04-27T13:28:45.310Z,4.05
2023-04-27T13:31:12.540Z,3.55
2023-04-27T13:33:42.273Z,3.80
2023-04-27T13:36:10.536Z,4.03
2023-04-27T13:38:37.688Z,3.80
2023-04-27T13:41:05.229Z,3.55
2023-04-27T13:43:32.522Z,3.90
2023-04-27T13:46:01.679Z,3.40
2023-04-27T13:48:29.526Z,4.18
2023-04-27T13:50:56.735Z,3.35
2023-04-27T13:53:26.987Z,3.30
2023-04-27T13:55:55.272Z,3.45
2023-04-27T13:58:25.594Z,4.05
2023-04-27T14:00:53.614Z,3.10
2023-04-27T14:03:22.767Z,3.50
2023-04-27T14:05:51.478Z,3.55
2023-04-27T14:08:19.127Z,3.08
2023-04-27T14:10:46.860Z,3.00
2023-04-27T14:13:14.421Z,3.88
2023-04-27T14:15:42.145Z,3.33
2023-04-27T14:18:09.828Z,3.30
2023-04-27T14:20:38.194Z,4.20
2023-04-27T14:23:06.341Z,4.10
2023-04-27T14:25:34.714Z,3.70
2023-04-27T14:28:04.383Z,3.42
2023-04-27T14:30:35.306Z,3.55
2023-04-27T14:33:03.348Z,3.50
2023-04-27T14:35:30.603Z,4.07
2023-04-27T14:38:02.370Z,3.60
2023-04-27T14:40:30.647Z,3.90
2023-04-27T14:43:01.355Z,3.05
2023-04-27T14:45:36.692Z,3.15
2023-04-27T14:48:07.116Z,3.17
2023-04-27T14:50:34.300Z,3.88
2023-04-27T14:53:01.257Z,3.53
2023-04-27T14:55:28.373Z,3.25
2023-04-27T14:57:55.343Z,3.53
2023-04-27T15:00:22.405Z,3.45
2023-04-27T15:02:49.434Z,3.42
2023-04-27T15:05:16.516Z,3.97
2023-04-27T15:07:43.510Z,3.85
2023-04-27T15:10:10.908Z,3.85
2023-04-27T15:12:37.954Z,3.45
2023-04-27T15:15:07.340Z,3.95
2023-04-27T15:17:35.866Z,3.92
2023-04-27T15:20:02.924Z,3.33
2023-04-27T15:22:30.572Z,3.75
2023-04-27T15:24:57.878Z,3.08
2023-04-27T15:27:27.218Z,3.92
2023-04-27T15:29:56.836Z,4.03
2023-04-27T15:32:28.045Z,3.70
2023-04-27T15:34:55.111Z,3.95
2023-04-27T15:37:22.087Z,4.25
2023-04-27T15:39:49.343Z,3.75
2023-04-27T15:42:16.345Z,3.83
2023-04-27T15:44:43.686Z,3.67
2023-04-27T15:47:10.739Z,3.47
2023-04-27T15:49:42.766Z,3.85
2023-04-27T15:52:16.956Z,3.70
2023-04-27T15:54:44.448Z,4.13
2023-04-27T15:57:11.377Z,3.28
2023-04-27T15:59:38.331Z,3.35
2023-04-27T16:02:05.248Z,4.32
2023-04-27T16:04:32.217Z,4.32
2023-04-27T16:06:59.348Z,4.38
2023-04-27T16:09:26.313Z,3.88
2023-04-27T16:11:53.249Z,4.40
2023-04-27T16:14:20.178Z,4.72
2023-04-27T16:16:47.217Z,4.30
2023-04-27T16:19:14.599Z,4.65
2023-04-27T16:21:42.917Z,4.93
2023-04-27T16:24:09.916Z,4.20
2023-04-27T16:26:38.202Z,4.32
2023-04-27T16:29:05.238Z,4.60
2023-04-27T16:31:32.324Z,5.05
2023-04-27T16:33:59.335Z,4.88
2023-04-27T16:36:26.205Z,4.60
2023-04-27T16:38:53.134Z,4.93
2023-04-27T16:41:20.060Z,4.65
2023-04-27T16:43:47.073Z,5.50
2023-04-27T16:46:15.419Z,5.45
2023-04-27T16:48:42.554Z,4.38
2023-04-27T16:51:10.749Z,4.40
2023-04-27T16:53:37.835Z,4.43
2023-04-27T16:56:05.288Z,5.00
2023-04-27T16:58:36.327Z,4.63
2023-04-27T17:01:03.554Z,4.60
2023-04-27T17:03:30.948Z,8.77
2023-04-27T17:05:58.025Z,5.75
2023-04-27T17:08:25.369Z,4.70
2023-04-27T17:10:53.115Z,5.05
2023-04-27T17:13:20.188Z,6.10
2023-04-27T17:15:47.347Z,5.07
2023-04-27T17:18:14.531Z,5.18
2023-04-27T17:20:42.360Z,5.40
2023-04-27T17:23:09.377Z,5.30
2023-04-27T17:25:37.228Z,4.65
2023-04-27T17:28:04.284Z,4.75
2023-04-27T17:30:31.452Z,5.65
2023-04-27T17:32:58.570Z,6.53
2023-04-27T17:35:27.308Z,6.55
2023-04-27T17:37:54.782Z,6.80
2023-04-27T17:40:22.852Z,6.78
2023-04-27T17:42:50.285Z,5.88
2023-04-27T17:45:17.203Z,8.45
2023-04-27T17:47:44.245Z,5.75
2023-04-27T17:50:11.582Z,6.05
2023-04-27T17:52:39.051Z,6.03
2023-04-27T17:55:06.278Z,6.13
2023-04-27T17:57:33.862Z,7.40
2023-04-27T18:00:02.172Z,5.75
2023-04-27T18:02:37.173Z,6.43
2023-04-27T18:05:04.892Z,5.97
2023-04-27T18:07:34.210Z,7.32
2023-04-27T18:10:01.156Z,6.63
2023-04-27T18:12:28.569Z,6.85
2023-04-27T18:14:55.913Z,6.60
2023-04-27T18:17:22.923Z,7.47
2023-04-27T18:20:00.856Z,10.27
2023-04-27T18:22:38.577Z,6.80
2023-04-27T18:25:07.037Z,6.97
2023-04-27T18:27:34.093Z,7.38
2023-04-27T18:30:01.604Z,6.88
2023-04-27T18:32:30.523Z,10.55
2023-04-27T18:34:57.664Z,8.48
2023-04-27T18:37:24.725Z,8.13
2023-04-27T18:39:52.870Z,8.20
2023-04-27T18:42:20.314Z,8.35
2023-04-27T18:44:48.313Z,7.55
2023-04-27T18:47:17.732Z,9.25
2023-04-27T18:49:44.793Z,7.53
2023-04-27T18:52:11.790Z,9.38
2023-04-27T18:54:39.065Z,9.75
2023-04-27T18:57:16.743Z,11.68
2023-04-27T18:59:48.795Z,9.45
2023-04-27T19:02:15.875Z,10.73
2023-04-27T19:04:48.959Z,9.60
2023-04-27T19:07:31.519Z,8.63
2023-04-27T19:10:00.577Z,7.85
2023-04-27T19:12:27.711Z,7.03
2023-04-27T19:14:54.749Z,8.40
2023-04-27T19:17:22.365Z,8.75
2023-04-27T19:19:50.058Z,7.60
2023-04-27T19:22:17.070Z,9.15
2023-04-27T19:24:44.141Z,8.13
2023-04-27T19:27:11.824Z,11.60
2023-04-27T19:29:51.144Z,8.88
2023-04-27T19:32:19.604Z,7.93
2023-04-27T19:34:47.936Z,8.73
2023-04-27T19:37:16.157Z,7.80
2023-04-27T19:39:43.141Z,6.75
2023-04-27T19:42:10.136Z,7.28
2023-04-27T19:44:39.321Z,7.18
2023-04-27T19:47:06.820Z,6.63
2023-04-27T19:49:33.924Z,8.02
2023-04-27T19:52:01.063Z,7.20
2023-04-27T19:54:29.769Z,8.10
2023-04-27T19:56:56.889Z,7.20
2023-04-27T19:59:23.992Z,7.50
2023-04-27T20:01:51.171Z,7.60
2023-04-27T20:04:18.913Z,8.90
2023-04-27T20:06:47.000Z,6.85
2023-04-27T20:09:14.217Z,7.25
2023-04-27T20:11:41.294Z,8.00
2023-04-27T20:14:08.212Z,9.68
2023-04-27T20:16:35.207Z,8.18
2023-04-27T20:19:02.148Z,7.03
2023-04-27T20:21:29.444Z,7.80
2023-04-27T20:23:56.468Z,9.00
2023-04-27T20:26:24.587Z,8.27
2023-04-27T20:28:51.538Z,8.65
2023-04-27T20:31:18.540Z,8.35
2023-04-27T20:33:45.491Z,7.55
2023-04-27T20:36:17.038Z,8.05
2023-04-27T20:38:45.819Z,7.00
2023-04-27T20:41:13.937Z,7.55
2023-04-27T20:43:41.149Z,8.50
2023-04-27T20:46:08.425Z,7.30
2023-04-27T20:48:35.725Z,8.65
2023-04-27T20:51:02.927Z,8.50
2023-04-27T20:53:30.066Z,8.73
2023-04-27T20:55:57.220Z,7.97
2023-04-27T20:58:24.204Z,7.63
2023-04-27T21:00:51.594Z,8.40
2023-04-27T21:03:18.774Z,7.43
2023-04-27T21:05:46.052Z,8.43
2023-04-27T21:08:13.070Z,7.88
2023-04-27T21:10:40.047Z,8.32
2023-04-27T21:13:07.336Z,7.78
2023-04-27T21:15:34.380Z,8.00
2023-04-27T21:18:01.399Z,6.97
2023-04-27T21:20:28.269Z,8.07
2023-04-27T21:22:55.507Z,8.40
2023-04-27T21:25:23.825Z,6.95
2023-04-27T21:27:51.139Z,7.65
2023-04-27T21:30:18.117Z,8.75
2023-04-27T21:32:45.114Z,8.27
2023-04-27T21:35:12.324Z,7.28
2023-04-27T21:37:39.296Z,7.07
2023-04-27T21:40:07.089Z,7.03
2023-04-27T21:42:34.152Z,7.47
2023-04-27T21:45:01.237Z,7.85
2023-04-27T21:47:28.308Z,6.72
2023-04-27T21:49:55.812Z,7.40
2023-04-27T21:52:22.698Z,7.45
2023-04-27T21:54:49.817Z,8.15
2023-04-27T21:57:19.951Z,6.55
2023-04-27T21:59:47.148Z,7.93
2023-04-27T22:02:14.352Z,7.60
2023-04-27T22:04:41.518Z,7.88
2023-04-27T22:07:09.169Z,7.22
2023-04-27T22:09:36.078Z,7.43
2023-04-27T22:12:03.513Z,7.93
2023-04-27T22:14:31.486Z,7.72
2023-04-27T22:17:01.036Z,8.07
2023-04-27T22:19:28.929Z,7.22
2023-04-27T22:21:56.109Z,8.02
2023-04-27T22:24:23.950Z,7.82
2023-04-27T22:26:51.111Z,7.63
2023-04-27T22:29:18.247Z,7.95
2023-04-27T22:31:45.888Z,8.32
2023-04-27T22:34:13.528Z,7.88
2023-04-27T22:36:41.427Z,7.35
2023-04-27T22:39:09.059Z,7.30
2023-04-27T22:41:36.252Z,6.72
2023-04-27T22:44:03.230Z,7.78
2023-04-27T22:46:30.236Z,6.47
2023-04-27T22:48:58.702Z,7.57
2023-04-27T22:51:27.662Z,8.48
2023-04-27T22:53:54.940Z,6.35
2023-04-27T22:56:22.648Z,7.55
2023-04-27T22:58:49.915Z,7.20
2023-04-27T23:01:17.050Z,6.90
2023-04-27T23:03:44.382Z,6.80
2023-04-27T23:06:15.010Z,8.15
2023-04-27T23:08:44.019Z,7.38
2023-04-27T23:11:13.941Z,6.18
2023-04-27T23:13:41.108Z,7.80
2023-04-27T23:16:10.122Z,6.93
2023-04-27T23:18:37.290Z,7.30
2023-04-27T23:21:04.380Z,6.28
2023-04-27T23:23:31.560Z,6.68
2023-04-27T23:25:58.609Z,7.90
2023-04-27T23:28:25.945Z,7.65
2023-04-27T23:30:54.756Z,7.90
2023-04-27T23:33:22.376Z,7.32
2023-04-27T23:35:49.446Z,7.78
2023-04-27T23:38:16.593Z,8.10
2023-04-27T23:40:43.613Z,8.00
2023-04-27T23:43:10.691Z,6.75
2023-04-27T23:45:37.780Z,7.97
2023-04-27T23:48:05.257Z,8.18
2023-04-27T23:50:33.082Z,8.50
2023-04-27T23:53:00.028Z,7.97
2023-04-27T23:55:26.984Z,7.82
2023-04-27T23:57:54.048Z,7.45
